sensor_id;sensor_type;location;lat;lon;timestamp;P1;durP1;ratioP1;P2;durP2;ratioP2
77055;SDS011;67471;44.918;8.614;2023-03-03T00:00:57;23.55;;;13.02;;
77055;SDS011;67471;44.918;8.614;2023-03-03T00:04:00;21.05;;;12.20;;
77055;SDS011;67471;44.918;8.614;2023-03-03T00:07:04;24.00;;;12.88;;
77055;SDS011;67471;44.918;8.614;2023-03-03T00:10:08;22.38;;;12.65;;
77055;SDS011;67471;44.918;8.614;2023-03-03T00:13:20;22.38;;;12.43;;
77055;SDS011;67471;44.918;8.614;2023-03-03T00:16:30;21.25;;;13.48;;
77055;SDS011;67471;44.918;8.614;2023-03-03T00:19:37;20.13;;;12.40;;
77055;SDS011;67471;44.918;8.614;2023-03-03T00:22:43;23.55;;;13.52;;
77055;SDS011;67471;44.918;8.614;2023-03-03T00:25:48;22.92;;;13.40;;
77055;SDS011;67471;44.918;8.614;2023-03-03T00:28:54;22.05;;;14.10;;
77055;SDS011;67471;44.918;8.614;2023-03-03T00:35:25;21.65;;;12.85;;
77055;SDS011;67471;44.918;8.614;2023-03-03T00:38:37;18.08;;;12.13;;
77055;SDS011;67471;44.918;8.614;2023-03-03T00:41:41;20.48;;;13.05;;
77055;SDS011;67471;44.918;8.614;2023-03-03T00:44:46;21.15;;;12.07;;
77055;SDS011;67471;44.918;8.614;2023-03-03T00:54:34;18.70;;;12.13;;
77055;SDS011;67471;44.918;8.614;2023-03-03T00:57:37;22.15;;;13.05;;
77055;SDS011;67471;44.918;8.614;2023-03-03T01:00:43;21.85;;;12.68;;
77055;SDS011;67471;44.918;8.614;2023-03-03T01:03:49;20.50;;;12.45;;
77055;SDS011;67471;44.918;8.614;2023-03-03T01:06:53;20.48;;;12.07;;
77055;SDS011;67471;44.918;8.614;2023-03-03T01:09:57;19.35;;;12.45;;
77055;SDS011;67471;44.918;8.614;2023-03-03T01:13:01;20.88;;;13.45;;
77055;SDS011;67471;44.918;8.614;2023-03-03T01:16:05;19.58;;;12.30;;
77055;SDS011;67471;44.918;8.614;2023-03-03T01:19:09;19.40;;;11.98;;
77055;SDS011;67471;44.918;8.614;2023-03-03T01:22:13;21.15;;;12.88;;
77055;SDS011;67471;44.918;8.614;2023-03-03T01:25:16;19.45;;;12.60;;
77055;SDS011;67471;44.918;8.614;2023-03-03T01:28:20;20.20;;;12.82;;
77055;SDS011;67471;44.918;8.614;2023-03-03T01:31:24;19.85;;;11.90;;
77055;SDS011;67471;44.918;8.614;2023-03-03T01:34:29;22.27;;;12.88;;
77055;SDS011;67471;44.918;8.614;2023-03-03T01:37:33;19.48;;;11.95;;
77055;SDS011;67471;44.918;8.614;2023-03-03T01:40:39;22.48;;;13.82;;
77055;SDS011;67471;44.918;8.614;2023-03-03T01:43:44;20.95;;;12.40;;
77055;SDS011;67471;44.918;8.614;2023-03-03T01:50:09;22.35;;;13.52;;
77055;SDS011;67471;44.918;8.614;2023-03-03T01:53:18;21.30;;;13.20;;
77055;SDS011;67471;44.918;8.614;2023-03-03T01:56:25;19.60;;;13.07;;
77055;SDS011;67471;44.918;8.614;2023-03-03T01:59:31;20.90;;;12.43;;
77055;SDS011;67471;44.918;8.614;2023-03-03T02:02:38;21.35;;;12.90;;
77055;SDS011;67471;44.918;8.614;2023-03-03T02:05:44;20.45;;;12.93;;
77055;SDS011;67471;44.918;8.614;2023-03-03T02:12:02;22.95;;;12.95;;
77055;SDS011;67471;44.918;8.614;2023-03-03T02:18:19;20.55;;;14.30;;
77055;SDS011;67471;44.918;8.614;2023-03-03T02:21:23;22.30;;;13.85;;
77055;SDS011;67471;44.918;8.614;2023-03-03T02:24:35;20.42;;;13.60;;
77055;SDS011;67471;44.918;8.614;2023-03-03T02:27:45;25.08;;;15.25;;
77055;SDS011;67471;44.918;8.614;2023-03-03T02:30:49;23.33;;;14.27;;
77055;SDS011;67471;44.918;8.614;2023-03-03T02:33:53;28.90;;;14.52;;
77055;SDS011;67471;44.918;8.614;2023-03-03T02:36:57;22.38;;;14.07;;
77055;SDS011;67471;44.918;8.614;2023-03-03T02:40:01;21.80;;;13.52;;
77055;SDS011;67471;44.918;8.614;2023-03-03T02:43:05;23.65;;;15.02;;
77055;SDS011;67471;44.918;8.614;2023-03-03T02:46:10;22.25;;;13.55;;
77055;SDS011;67471;44.918;8.614;2023-03-03T02:49:15;22.10;;;13.98;;
77055;SDS011;67471;44.918;8.614;2023-03-03T02:52:20;21.38;;;13.43;;
77055;SDS011;67471;44.918;8.614;2023-03-03T02:55:26;20.35;;;11.18;;
77055;SDS011;67471;44.918;8.614;2023-03-03T02:58:30;20.65;;;13.50;;
77055;SDS011;67471;44.918;8.614;2023-03-03T03:01:34;22.73;;;13.30;;
77055;SDS011;67471;44.918;8.614;2023-03-03T03:04:41;20.80;;;12.05;;
77055;SDS011;67471;44.918;8.614;2023-03-03T03:07:47;19.35;;;11.73;;
77055;SDS011;67471;44.918;8.614;2023-03-03T03:10:51;18.02;;;12.35;;
77055;SDS011;67471;44.918;8.614;2023-03-03T03:13:55;19.65;;;12.50;;
77055;SDS011;67471;44.918;8.614;2023-03-03T03:16:59;23.73;;;13.05;;
77055;SDS011;67471;44.918;8.614;2023-03-03T03:20:04;20.23;;;11.65;;
77055;SDS011;67471;44.918;8.614;2023-03-03T03:23:09;19.77;;;11.52;;
77055;SDS011;67471;44.918;8.614;2023-03-03T03:26:14;23.33;;;13.02;;
77055;SDS011;67471;44.918;8.614;2023-03-03T03:29:18;22.58;;;13.27;;
77055;SDS011;67471;44.918;8.614;2023-03-03T03:32:22;24.50;;;13.27;;
77055;SDS011;67471;44.918;8.614;2023-03-03T03:35:26;23.35;;;13.18;;
77055;SDS011;67471;44.918;8.614;2023-03-03T03:38:30;23.77;;;13.18;;
77055;SDS011;67471;44.918;8.614;2023-03-03T03:41:35;19.55;;;12.25;;
77055;SDS011;67471;44.918;8.614;2023-03-03T03:44:39;26.05;;;12.75;;
77055;SDS011;67471;44.918;8.614;2023-03-03T03:47:42;20.17;;;12.07;;
77055;SDS011;67471;44.918;8.614;2023-03-03T03:50:46;23.50;;;12.75;;
77055;SDS011;67471;44.918;8.614;2023-03-03T03:53:51;23.52;;;12.93;;
77055;SDS011;67471;44.918;8.614;2023-03-03T03:56:55;22.48;;;13.27;;
77055;SDS011;67471;44.918;8.614;2023-03-03T03:59:59;21.90;;;13.45;;
77055;SDS011;67471;44.918;8.614;2023-03-03T04:03:03;22.27;;;14.88;;
77055;SDS011;67471;44.918;8.614;2023-03-03T04:06:07;22.85;;;13.70;;
77055;SDS011;67471;44.918;8.614;2023-03-03T04:09:11;24.42;;;15.18;;
77055;SDS011;67471;44.918;8.614;2023-03-03T04:12:15;21.25;;;13.30;;
77055;SDS011;67471;44.918;8.614;2023-03-03T04:15:18;24.50;;;13.48;;
77055;SDS011;67471;44.918;8.614;2023-03-03T04:18:22;21.67;;;13.57;;
77055;SDS011;67471;44.918;8.614;2023-03-03T04:21:26;23.92;;;13.48;;
77055;SDS011;67471;44.918;8.614;2023-03-03T04:24:33;20.48;;;12.68;;
77055;SDS011;67471;44.918;8.614;2023-03-03T04:27:37;19.50;;;11.73;;
77055;SDS011;67471;44.918;8.614;2023-03-03T04:30:42;25.10;;;14.02;;
77055;SDS011;67471;44.918;8.614;2023-03-03T04:33:46;22.50;;;14.38;;
77055;SDS011;67471;44.918;8.614;2023-03-03T04:36:49;24.25;;;14.00;;
77055;SDS011;67471;44.918;8.614;2023-03-03T04:39:54;19.33;;;11.98;;
77055;SDS011;67471;44.918;8.614;2023-03-03T04:42:58;20.13;;;13.20;;
77055;SDS011;67471;44.918;8.614;2023-03-03T04:46:02;22.60;;;12.75;;
77055;SDS011;67471;44.918;8.614;2023-03-03T04:49:07;22.58;;;12.23;;
77055;SDS011;67471;44.918;8.614;2023-03-03T04:52:12;23.77;;;13.45;;
77055;SDS011;67471;44.918;8.614;2023-03-03T04:55:15;19.33;;;12.50;;
77055;SDS011;67471;44.918;8.614;2023-03-03T04:58:20;21.38;;;12.90;;
77055;SDS011;67471;44.918;8.614;2023-03-03T05:01:24;19.17;;;11.57;;
77055;SDS011;67471;44.918;8.614;2023-03-03T05:04:28;19.52;;;12.13;;
77055;SDS011;67471;44.918;8.614;2023-03-03T05:07:32;23.13;;;13.50;;
77055;SDS011;67471;44.918;8.614;2023-03-03T05:10:35;20.40;;;13.73;;
77055;SDS011;67471;44.918;8.614;2023-03-03T05:13:39;22.10;;;12.95;;
77055;SDS011;67471;44.918;8.614;2023-03-03T05:16:43;25.02;;;13.43;;
77055;SDS011;67471;44.918;8.614;2023-03-03T05:19:47;20.40;;;13.02;;
77055;SDS011;67471;44.918;8.614;2023-03-03T05:22:51;20.02;;;12.73;;
77055;SDS011;67471;44.918;8.614;2023-03-03T05:25:54;22.40;;;13.13;;
77055;SDS011;67471;44.918;8.614;2023-03-03T05:28:58;21.00;;;12.52;;
77055;SDS011;67471;44.918;8.614;2023-03-03T05:32:02;22.73;;;13.63;;
77055;SDS011;67471;44.918;8.614;2023-03-03T05:35:06;20.00;;;12.07;;
77055;SDS011;67471;44.918;8.614;2023-03-03T05:38:10;19.35;;;12.80;;
77055;SDS011;67471;44.918;8.614;2023-03-03T05:41:14;21.60;;;13.20;;
77055;SDS011;67471;44.918;8.614;2023-03-03T05:44:17;24.77;;;13.68;;
77055;SDS011;67471;44.918;8.614;2023-03-03T05:47:21;22.45;;;12.63;;
77055;SDS011;67471;44.918;8.614;2023-03-03T05:50:25;20.30;;;12.32;;
77055;SDS011;67471;44.918;8.614;2023-03-03T05:53:29;24.63;;;14.93;;
77055;SDS011;67471;44.918;8.614;2023-03-03T05:56:33;22.73;;;13.00;;
77055;SDS011;67471;44.918;8.614;2023-03-03T05:59:37;25.90;;;14.43;;
77055;SDS011;67471;44.918;8.614;2023-03-03T06:02:41;29.30;;;16.33;;
77055;SDS011;67471;44.918;8.614;2023-03-03T06:05:45;23.92;;;14.88;;
77055;SDS011;67471;44.918;8.614;2023-03-03T06:08:49;22.42;;;14.18;;
77055;SDS011;67471;44.918;8.614;2023-03-03T06:11:53;23.88;;;13.65;;
77055;SDS011;67471;44.918;8.614;2023-03-03T06:14:57;22.27;;;13.20;;
77055;SDS011;67471;44.918;8.614;2023-03-03T06:18:01;23.45;;;14.60;;
77055;SDS011;67471;44.918;8.614;2023-03-03T06:21:05;21.38;;;13.75;;
77055;SDS011;67471;44.918;8.614;2023-03-03T06:24:08;26.75;;;14.55;;
77055;SDS011;67471;44.918;8.614;2023-03-03T06:27:12;26.35;;;15.77;;
77055;SDS011;67471;44.918;8.614;2023-03-03T06:30:16;25.00;;;13.77;;
77055;SDS011;67471;44.918;8.614;2023-03-03T06:33:21;25.30;;;14.32;;
77055;SDS011;67471;44.918;8.614;2023-03-03T06:36:25;25.13;;;15.50;;
77055;SDS011;67471;44.918;8.614;2023-03-03T06:39:28;25.10;;;15.90;;
77055;SDS011;67471;44.918;8.614;2023-03-03T06:42:32;24.45;;;14.85;;
77055;SDS011;67471;44.918;8.614;2023-03-03T06:45:36;21.73;;;14.00;;
77055;SDS011;67471;44.918;8.614;2023-03-03T06:48:40;26.27;;;14.25;;
77055;SDS011;67471;44.918;8.614;2023-03-03T06:51:44;24.42;;;14.88;;
77055;SDS011;67471;44.918;8.614;2023-03-03T06:54:49;25.63;;;14.88;;
77055;SDS011;67471;44.918;8.614;2023-03-03T06:57:58;20.65;;;14.07;;
77055;SDS011;67471;44.918;8.614;2023-03-03T07:01:01;31.10;;;14.25;;
77055;SDS011;67471;44.918;8.614;2023-03-03T07:04:23;26.17;;;15.50;;
77055;SDS011;67471;44.918;8.614;2023-03-03T07:07:31;23.20;;;14.00;;
77055;SDS011;67471;44.918;8.614;2023-03-03T07:10:36;22.80;;;14.15;;
77055;SDS011;67471;44.918;8.614;2023-03-03T07:13:43;23.08;;;15.25;;
77055;SDS011;67471;44.918;8.614;2023-03-03T07:16:55;20.75;;;14.40;;
77055;SDS011;67471;44.918;8.614;2023-03-03T07:20:04;21.45;;;14.57;;
77055;SDS011;67471;44.918;8.614;2023-03-03T07:23:22;19.30;;;13.93;;
77055;SDS011;67471;44.918;8.614;2023-03-03T07:26:28;22.00;;;14.10;;
77055;SDS011;67471;44.918;8.614;2023-03-03T07:29:35;19.75;;;13.57;;
77055;SDS011;67471;44.918;8.614;2023-03-03T07:32:44;17.08;;;13.10;;
77055;SDS011;67471;44.918;8.614;2023-03-03T07:35:49;16.50;;;12.82;;
77055;SDS011;67471;44.918;8.614;2023-03-03T07:38:53;19.45;;;13.52;;
77055;SDS011;67471;44.918;8.614;2023-03-03T07:49:21;19.33;;;13.85;;
77055;SDS011;67471;44.918;8.614;2023-03-03T07:52:34;18.45;;;13.55;;
77055;SDS011;67471;44.918;8.614;2023-03-03T07:55:41;19.42;;;13.85;;
77055;SDS011;67471;44.918;8.614;2023-03-03T07:58:45;17.20;;;12.98;;
77055;SDS011;67471;44.918;8.614;2023-03-03T08:01:53;18.98;;;14.13;;
77055;SDS011;67471;44.918;8.614;2023-03-03T08:05:00;16.73;;;13.38;;
77055;SDS011;67471;44.918;8.614;2023-03-03T08:11:23;19.85;;;13.32;;
77055;SDS011;67471;44.918;8.614;2023-03-03T08:14:37;19.38;;;13.68;;
77055;SDS011;67471;44.918;8.614;2023-03-03T08:17:40;16.95;;;12.65;;
77055;SDS011;67471;44.918;8.614;2023-03-03T08:20:55;19.63;;;14.45;;
77055;SDS011;67471;44.918;8.614;2023-03-03T08:24:01;18.48;;;14.05;;
77055;SDS011;67471;44.918;8.614;2023-03-03T08:27:05;20.75;;;14.45;;
77055;SDS011;67471;44.918;8.614;2023-03-03T08:30:09;18.63;;;14.52;;
77055;SDS011;67471;44.918;8.614;2023-03-03T08:33:13;19.55;;;14.27;;
77055;SDS011;67471;44.918;8.614;2023-03-03T08:36:18;23.73;;;14.70;;
77055;SDS011;67471;44.918;8.614;2023-03-03T08:39:21;19.13;;;13.95;;
77055;SDS011;67471;44.918;8.614;2023-03-03T08:42:25;18.48;;;13.20;;
77055;SDS011;67471;44.918;8.614;2023-03-03T08:45:29;15.85;;;12.50;;
77055;SDS011;67471;44.918;8.614;2023-03-03T08:48:33;18.50;;;12.25;;
77055;SDS011;67471;44.918;8.614;2023-03-03T08:51:36;21.52;;;13.23;;
77055;SDS011;67471;44.918;8.614;2023-03-03T08:54:40;17.38;;;12.43;;
77055;SDS011;67471;44.918;8.614;2023-03-03T08:57:44;16.25;;;12.48;;
77055;SDS011;67471;44.918;8.614;2023-03-03T09:00:48;20.08;;;12.93;;
77055;SDS011;67471;44.918;8.614;2023-03-03T09:03:51;16.63;;;12.30;;
77055;SDS011;67471;44.918;8.614;2023-03-03T09:06:55;19.55;;;13.23;;
77055;SDS011;67471;44.918;8.614;2023-03-03T09:10:00;19.13;;;12.65;;
77055;SDS011;67471;44.918;8.614;2023-03-03T09:13:14;16.98;;;11.35;;
77055;SDS011;67471;44.918;8.614;2023-03-03T09:16:20;19.45;;;13.50;;
77055;SDS011;67471;44.918;8.614;2023-03-03T09:19:29;17.65;;;12.82;;
77055;SDS011;67471;44.918;8.614;2023-03-03T09:22:37;21.00;;;12.27;;
77055;SDS011;67471;44.918;8.614;2023-03-03T09:25:41;21.88;;;11.68;;
77055;SDS011;67471;44.918;8.614;2023-03-03T09:28:44;16.20;;;11.63;;
77055;SDS011;67471;44.918;8.614;2023-03-03T09:31:58;19.33;;;12.00;;
77055;SDS011;67471;44.918;8.614;2023-03-03T09:38:44;15.90;;;11.88;;
77055;SDS011;67471;44.918;8.614;2023-03-03T09:45:33;17.33;;;11.68;;
77055;SDS011;67471;44.918;8.614;2023-03-03T09:59:52;16.25;;;11.95;;
77055;SDS011;67471;44.918;8.614;2023-03-03T10:06:34;18.17;;;12.10;;
77055;SDS011;67471;44.918;8.614;2023-03-03T10:13:14;18.23;;;11.07;;
77055;SDS011;67471;44.918;8.614;2023-03-03T10:31:09;19.33;;;12.88;;
77055;SDS011;67471;44.918;8.614;2023-03-03T10:34:42;19.17;;;12.88;;
77055;SDS011;67471;44.918;8.614;2023-03-03T10:51:31;20.25;;;14.32;;
77055;SDS011;67471;44.918;8.614;2023-03-03T11:09:02;17.08;;;13.43;;
77055;SDS011;67471;44.918;8.614;2023-03-03T11:19:17;18.70;;;12.80;;
77055;SDS011;67471;44.918;8.614;2023-03-03T11:22:37;19.77;;;13.15;;
77055;SDS011;67471;44.918;8.614;2023-03-03T11:25:53;16.25;;;11.43;;
77055;SDS011;67471;44.918;8.614;2023-03-03T11:32:22;15.00;;;10.63;;
77055;SDS011;67471;44.918;8.614;2023-03-03T11:38:58;14.80;;;9.73;;
77055;SDS011;67471;44.918;8.614;2023-03-03T11:42:19;14.25;;;8.98;;
77055;SDS011;67471;44.918;8.614;2023-03-03T11:52:31;16.90;;;10.48;;
77055;SDS011;67471;44.918;8.614;2023-03-03T11:55:42;14.05;;;10.13;;
77055;SDS011;67471;44.918;8.614;2023-03-03T12:13:05;14.43;;;9.70;;
77055;SDS011;67471;44.918;8.614;2023-03-03T12:16:38;13.98;;;9.63;;
77055;SDS011;67471;44.918;8.614;2023-03-03T12:23:19;14.60;;;11.30;;
77055;SDS011;67471;44.918;8.614;2023-03-03T12:30:02;20.80;;;12.15;;
77055;SDS011;67471;44.918;8.614;2023-03-03T12:40:19;17.65;;;11.82;;
77055;SDS011;67471;44.918;8.614;2023-03-03T12:50:43;16.88;;;11.18;;
77055;SDS011;67471;44.918;8.614;2023-03-03T13:07:22;17.27;;;10.88;;
77055;SDS011;67471;44.918;8.614;2023-03-03T13:10:35;17.75;;;12.05;;
77055;SDS011;67471;44.918;8.614;2023-03-03T13:17:03;18.48;;;11.70;;
77055;SDS011;67471;44.918;8.614;2023-03-03T13:20:16;17.42;;;11.10;;
77055;SDS011;67471;44.918;8.614;2023-03-03T13:33:29;12.07;;;8.13;;
77055;SDS011;67471;44.918;8.614;2023-03-03T13:36:41;12.20;;;8.40;;
77055;SDS011;67471;44.918;8.614;2023-03-03T13:39:55;11.77;;;7.35;;
77055;SDS011;67471;44.918;8.614;2023-03-03T13:43:14;14.00;;;8.80;;
77055;SDS011;67471;44.918;8.614;2023-03-03T13:50:00;12.88;;;8.95;;
77055;SDS011;67471;44.918;8.614;2023-03-03T13:57:03;13.43;;;8.50;;
77055;SDS011;67471;44.918;8.614;2023-03-03T14:00:34;12.18;;;8.25;;
77055;SDS011;67471;44.918;8.614;2023-03-03T14:03:58;13.52;;;8.30;;
77055;SDS011;67471;44.918;8.614;2023-03-03T14:07:20;12.80;;;7.50;;
77055;SDS011;67471;44.918;8.614;2023-03-03T14:10:31;9.75;;;6.80;;
77055;SDS011;67471;44.918;8.614;2023-03-03T14:13:56;10.25;;;6.38;;
77055;SDS011;67471;44.918;8.614;2023-03-03T14:17:08;10.07;;;6.88;;
77055;SDS011;67471;44.918;8.614;2023-03-03T14:20:29;14.60;;;7.18;;
77055;SDS011;67471;44.918;8.614;2023-03-03T14:29:52;15.10;;;6.88;;
77055;SDS011;67471;44.918;8.614;2023-03-03T14:36:12;9.88;;;6.93;;
77055;SDS011;67471;44.918;8.614;2023-03-03T14:39:27;10.27;;;6.60;;
77055;SDS011;67471;44.918;8.614;2023-03-03T14:42:36;10.18;;;5.90;;
77055;SDS011;67471;44.918;8.614;2023-03-03T14:46:21;11.35;;;6.95;;
77055;SDS011;67471;44.918;8.614;2023-03-03T14:49:34;10.10;;;6.00;;
77055;SDS011;67471;44.918;8.614;2023-03-03T14:52:40;10.98;;;5.97;;
77055;SDS011;67471;44.918;8.614;2023-03-03T14:55:45;10.68;;;5.50;;
77055;SDS011;67471;44.918;8.614;2023-03-03T14:58:51;9.48;;;5.55;;
77055;SDS011;67471;44.918;8.614;2023-03-03T15:08:32;9.15;;;5.38;;
77055;SDS011;67471;44.918;8.614;2023-03-03T15:11:37;8.77;;;5.53;;
77055;SDS011;67471;44.918;8.614;2023-03-03T15:14:45;8.98;;;5.22;;
77055;SDS011;67471;44.918;8.614;2023-03-03T15:17:57;10.52;;;5.40;;
77055;SDS011;67471;44.918;8.614;2023-03-03T15:21:11;8.00;;;5.20;;
77055;SDS011;67471;44.918;8.614;2023-03-03T15:27:58;10.05;;;5.97;;
77055;SDS011;67471;44.918;8.614;2023-03-03T15:31:29;14.63;;;7.03;;
77055;SDS011;67471;44.918;8.614;2023-03-03T15:34:46;8.60;;;5.38;;
77055;SDS011;67471;44.918;8.614;2023-03-03T15:38:04;8.73;;;5.72;;
77055;SDS011;67471;44.918;8.614;2023-03-03T15:52:13;10.73;;;6.15;;
77055;SDS011;67471;44.918;8.614;2023-03-03T15:55:51;10.77;;;6.72;;
77055;SDS011;67471;44.918;8.614;2023-03-03T16:02:24;10.10;;;6.28;;
77055;SDS011;67471;44.918;8.614;2023-03-03T16:06:00;17.33;;;7.88;;
77055;SDS011;67471;44.918;8.614;2023-03-03T16:09:14;12.55;;;7.63;;
77055;SDS011;67471;44.918;8.614;2023-03-03T16:12:30;12.45;;;7.32;;
77055;SDS011;67471;44.918;8.614;2023-03-03T16:28:56;15.70;;;6.63;;
77055;SDS011;67471;44.918;8.614;2023-03-03T16:38:36;20.05;;;6.30;;
77055;SDS011;67471;44.918;8.614;2023-03-03T16:42:30;33.67;;;7.85;;
77055;SDS011;67471;44.918;8.614;2023-03-03T16:45:33;15.38;;;6.43;;
77055;SDS011;67471;44.918;8.614;2023-03-03T16:48:45;13.48;;;6.40;;
77055;SDS011;67471;44.918;8.614;2023-03-03T16:52:18;15.20;;;6.88;;
77055;SDS011;67471;44.918;8.614;2023-03-03T16:55:29;11.70;;;6.32;;
77055;SDS011;67471;44.918;8.614;2023-03-03T16:58:44;13.23;;;6.50;;
77055;SDS011;67471;44.918;8.614;2023-03-03T17:06:09;13.38;;;6.60;;
77055;SDS011;67471;44.918;8.614;2023-03-03T17:12:45;10.10;;;7.00;;
77055;SDS011;67471;44.918;8.614;2023-03-03T17:16:16;10.00;;;6.65;;
77055;SDS011;67471;44.918;8.614;2023-03-03T17:20:16;16.05;;;7.25;;
77055;SDS011;67471;44.918;8.614;2023-03-03T17:23:32;20.58;;;10.07;;
77055;SDS011;67471;44.918;8.614;2023-03-03T17:26:50;20.40;;;12.00;;
77055;SDS011;67471;44.918;8.614;2023-03-03T17:33:25;15.07;;;9.25;;
77055;SDS011;67471;44.918;8.614;2023-03-03T17:36:39;13.90;;;9.45;;
77055;SDS011;67471;44.918;8.614;2023-03-03T17:47:01;14.45;;;8.80;;
77055;SDS011;67471;44.918;8.614;2023-03-03T17:53:35;18.02;;;10.05;;
77055;SDS011;67471;44.918;8.614;2023-03-03T18:07:25;21.42;;;9.65;;
77055;SDS011;67471;44.918;8.614;2023-03-03T18:27:30;22.30;;;12.02;;
77055;SDS011;67471;44.918;8.614;2023-03-03T18:31:01;17.83;;;10.45;;
77055;SDS011;67471;44.918;8.614;2023-03-03T18:40:33;17.73;;;10.65;;
77055;SDS011;67471;44.918;8.614;2023-03-03T18:46:48;20.42;;;13.00;;
77055;SDS011;67471;44.918;8.614;2023-03-03T18:56:42;19.38;;;14.00;;
77055;SDS011;67471;44.918;8.614;2023-03-03T18:59:59;20.05;;;13.98;;
77055;SDS011;67471;44.918;8.614;2023-03-03T19:09:53;21.23;;;12.52;;
77055;SDS011;67471;44.918;8.614;2023-03-03T19:13:00;17.50;;;10.95;;
77055;SDS011;67471;44.918;8.614;2023-03-03T19:16:08;19.42;;;11.93;;
77055;SDS011;67471;44.918;8.614;2023-03-03T19:19:30;21.52;;;11.68;;
77055;SDS011;67471;44.918;8.614;2023-03-03T19:22:47;21.02;;;12.38;;
77055;SDS011;67471;44.918;8.614;2023-03-03T19:40:18;27.60;;;14.55;;
77055;SDS011;67471;44.918;8.614;2023-03-03T19:43:50;21.40;;;12.77;;
77055;SDS011;67471;44.918;8.614;2023-03-03T19:47:22;20.45;;;12.18;;
77055;SDS011;67471;44.918;8.614;2023-03-03T19:50:45;18.50;;;13.02;;
77055;SDS011;67471;44.918;8.614;2023-03-03T20:24:00;28.95;;;15.90;;
77055;SDS011;67471;44.918;8.614;2023-03-03T20:27:19;31.85;;;19.10;;
77055;SDS011;67471;44.918;8.614;2023-03-03T20:38:00;29.48;;;15.50;;
77055;SDS011;67471;44.918;8.614;2023-03-03T20:41:11;26.08;;;13.63;;
77055;SDS011;67471;44.918;8.614;2023-03-03T20:48:13;23.30;;;14.60;;
77055;SDS011;67471;44.918;8.614;2023-03-03T20:51:26;25.55;;;13.75;;
77055;SDS011;67471;44.918;8.614;2023-03-03T20:58:09;32.47;;;20.27;;
77055;SDS011;67471;44.918;8.614;2023-03-03T21:01:41;30.92;;;20.65;;
77055;SDS011;67471;44.918;8.614;2023-03-03T21:08:16;29.23;;;19.77;;
77055;SDS011;67471;44.918;8.614;2023-03-03T21:11:21;25.30;;;15.95;;
77055;SDS011;67471;44.918;8.614;2023-03-03T21:14:44;27.67;;;16.60;;
77055;SDS011;67471;44.918;8.614;2023-03-03T21:18:19;27.58;;;15.48;;
77055;SDS011;67471;44.918;8.614;2023-03-03T21:24:54;23.58;;;13.90;;
77055;SDS011;67471;44.918;8.614;2023-03-03T21:31:21;21.80;;;12.90;;
77055;SDS011;67471;44.918;8.614;2023-03-03T21:38:07;27.27;;;15.07;;
77055;SDS011;67471;44.918;8.614;2023-03-03T21:41:04;28.48;;;14.77;;
77055;SDS011;67471;44.918;8.614;2023-03-03T21:47:36;30.77;;;18.00;;
77055;SDS011;67471;44.918;8.614;2023-03-03T21:50:41;33.88;;;19.73;;
77055;SDS011;67471;44.918;8.614;2023-03-03T21:53:46;37.80;;;20.58;;
77055;SDS011;67471;44.918;8.614;2023-03-03T21:56:50;30.60;;;17.45;;
77055;SDS011;67471;44.918;8.614;2023-03-03T21:59:54;30.05;;;15.77;;
77055;SDS011;67471;44.918;8.614;2023-03-03T22:02:58;29.90;;;15.88;;
77055;SDS011;67471;44.918;8.614;2023-03-03T22:06:02;29.17;;;16.15;;
77055;SDS011;67471;44.918;8.614;2023-03-03T22:09:06;31.50;;;17.00;;
77055;SDS011;67471;44.918;8.614;2023-03-03T22:12:10;33.35;;;15.77;;
77055;SDS011;67471;44.918;8.614;2023-03-03T22:15:14;27.27;;;15.43;;
77055;SDS011;67471;44.918;8.614;2023-03-03T22:18:18;27.90;;;15.95;;
77055;SDS011;67471;44.918;8.614;2023-03-03T22:21:22;28.65;;;15.45;;
77055;SDS011;67471;44.918;8.614;2023-03-03T22:24:27;27.77;;;14.20;;
77055;SDS011;67471;44.918;8.614;2023-03-03T22:27:30;29.35;;;14.32;;
77055;SDS011;67471;44.918;8.614;2023-03-03T22:30:53;23.98;;;14.80;;
77055;SDS011;67471;44.918;8.614;2023-03-03T22:33:56;25.02;;;13.52;;
77055;SDS011;67471;44.918;8.614;2023-03-03T22:37:00;23.30;;;13.82;;
77055;SDS011;67471;44.918;8.614;2023-03-03T22:40:04;24.60;;;14.15;;
77055;SDS011;67471;44.918;8.614;2023-03-03T22:43:08;23.60;;;13.48;;
77055;SDS011;67471;44.918;8.614;2023-03-03T22:46:16;22.67;;;13.48;;
77055;SDS011;67471;44.918;8.614;2023-03-03T22:49:20;23.98;;;12.82;;
77055;SDS011;67471;44.918;8.614;2023-03-03T22:52:24;19.77;;;11.73;;
77055;SDS011;67471;44.918;8.614;2023-03-03T22:55:28;23.20;;;11.88;;
77055;SDS011;67471;44.918;8.614;2023-03-03T22:58:32;18.40;;;11.90;;
77055;SDS011;67471;44.918;8.614;2023-03-03T23:01:35;19.65;;;11.35;;
77055;SDS011;67471;44.918;8.614;2023-03-03T23:04:39;20.45;;;12.35;;
77055;SDS011;67471;44.918;8.614;2023-03-03T23:07:43;23.38;;;12.85;;
77055;SDS011;67471;44.918;8.614;2023-03-03T23:10:47;21.48;;;12.45;;
77055;SDS011;67471;44.918;8.614;2023-03-03T23:13:51;20.67;;;12.48;;
77055;SDS011;67471;44.918;8.614;2023-03-03T23:16:54;24.58;;;13.27;;
77055;SDS011;67471;44.918;8.614;2023-03-03T23:19:58;24.45;;;13.25;;
77055;SDS011;67471;44.918;8.614;2023-03-03T23:23:01;23.20;;;12.95;;
77055;SDS011;67471;44.918;8.614;2023-03-03T23:26:05;20.45;;;13.43;;
77055;SDS011;67471;44.918;8.614;2023-03-03T23:29:09;20.80;;;12.05;;
77055;SDS011;67471;44.918;8.614;2023-03-03T23:32:13;21.98;;;13.05;;
77055;SDS011;67471;44.918;8.614;2023-03-03T23:35:17;21.85;;;12.25;;
77055;SDS011;67471;44.918;8.614;2023-03-03T23:38:22;18.73;;;12.40;;
77055;SDS011;67471;44.918;8.614;2023-03-03T23:41:25;21.58;;;13.45;;
77055;SDS011;67471;44.918;8.614;2023-03-03T23:44:29;24.15;;;12.30;;
77055;SDS011;67471;44.918;8.614;2023-03-03T23:47:33;20.35;;;11.75;;
77055;SDS011;67471;44.918;8.614;2023-03-03T23:50:37;19.20;;;11.13;;
77055;SDS011;67471;44.918;8.614;2023-03-03T23:53:41;22.02;;;11.95;;
77055;SDS011;67471;44.918;8.614;2023-03-03T23:56:45;22.02;;;12.73;;
77055;SDS011;67471;44.918;8.614;2023-03-03T23:59:49;21.45;;;12.38;;
